Terminal Aerodrome Forecast
Issued by NWS

Home | Current Version | Previous Version | Graphics & Text | Print | Product List | Glossary On
Versions: 1 2 3 4 5 6 7 8 9 10 11 12 13 14 15 16
680
FTUS43 KGRB 301139
TAFATW
TAF
KATW 301139Z 3012/0112 VRB03KT P6SM SCT040 SCT080
      TEMPO 3012/3014 5SM BR BKN040
     FM301400 VRB03KT P6SM BKN040
     FM301800 23005KT P6SM BKN028 OVC040
     FM302300 22004KT 4SM -RA BKN015 OVC025
     FM010600 26005KT 4SM -SHRASN SCT006 OVC015=

USA.gov is the U.S. government's official web portal to all federal, state and local government web resources and services.